Time;durP1;ratioP1;P1;durP2;ratioP2;P2;SDS_P1;SDS_P2;PMS_P1;PMS_P2;Temp;Humidity;BMP_temperature;BMP_pressure;BME280_temperature;BME280_humidity;BME280_pressure;Samples;Min_cycle;Max_cycle;Signal;HPM_P1;HPM_P2
2023/01/20 00:01:11;;;;;;;;;;;-0.30;99.90;;;;;;5052351;28;19974;-76
2023/01/20 00:03:40;;;;;;;;;;;-0.20;99.90;;;;;;5051238;28;20007;-79
2023/01/20 00:06:06;;;;;;;;;;;-0.10;99.90;;;;;;5051974;28;19908;-77
2023/01/20 00:08:32;;;;;;;;;;;-0.10;99.90;;;;;;5051739;28;20285;-75
2023/01/20 00:10:57;;;;;;;;;;;0.00;99.90;;;;;;5051547;28;19912;-76
2023/01/20 00:13:23;;;;;;;;;;;0.00;99.90;;;;;;5051826;28;19908;-76
2023/01/20 00:15:49;;;;;;;;;;;0.10;99.90;;;;;;5051096;28;19913;-76
2023/01/20 00:18:15;;;;;;;;;;;0.20;99.90;;;;;;5051544;28;19951;-76
2023/01/20 00:20:40;;;;;;;;;;;0.20;99.90;;;;;;5051215;28;19909;-76
2023/01/20 00:23:06;;;;;;;;;;;0.30;99.90;;;;;;5051660;28;19916;-76
2023/01/20 00:25:34;;;;;;;;;;;0.40;99.90;;;;;;5051422;28;20281;-77
2023/01/20 00:27:59;;;;;;;;;;;0.40;99.90;;;;;;5051125;28;20340;-76
2023/01/20 00:30:25;;;;;;;;;;;0.50;99.90;;;;;;5051431;28;20008;-76
2023/01/20 00:32:51;;;;;;;;;;;0.50;99.90;;;;;;5050791;28;19908;-76
2023/01/20 00:35:16;;;;;;;;;;;0.60;99.90;;;;;;5050054;28;20011;-76
2023/01/20 00:37:42;;;;;;;;;;;0.60;99.90;;;;;;5050766;28;19909;-77
2023/01/20 00:40:08;;;;;;;;;;;0.60;99.90;;;;;;5051572;28;19924;-76
2023/01/20 00:42:33;;;;;;;;;;;0.50;99.90;;;;;;5051188;28;19919;-76
2023/01/20 00:44:59;;;;;;;;;;;0.50;99.90;;;;;;5051259;28;20325;-77
2023/01/20 00:47:24;;;;;;;;;;;0.50;99.90;;;;;;5051688;28;19909;-76
2023/01/20 00:49:50;;;;;;;;;;;0.50;99.90;;;;;;5051248;28;20034;-76
2023/01/20 00:52:17;;;;;;;;;;;0.50;99.90;;;;;;5051406;28;19963;-76
2023/01/20 00:54:43;;;;;;;;;;;0.50;99.90;;;;;;5051164;28;19927;-76
2023/01/20 00:57:09;;;;;;;;;;;0.40;99.90;;;;;;5052060;28;19908;-76
2023/01/20 00:59:34;;;;;;;;;;;0.40;99.90;;;;;;5052048;28;20014;-76
2023/01/20 01:02:00;;;;;;;;;;;0.50;99.90;;;;;;5050765;28;19913;-76
2023/01/20 01:04:25;;;;;;;;;;;0.40;99.90;;;;;;5051550;28;19909;-76
2023/01/20 01:06:51;;;;;;;;;;;0.40;99.90;;;;;;5050833;28;19909;-76
2023/01/20 01:09:16;;;;;;;;;;;0.40;99.90;;;;;;5049957;28;19917;-76
2023/01/20 01:11:42;;;;;;;;;;;0.40;99.90;;;;;;5050659;28;19915;-77
2023/01/20 01:14:08;;;;;;;;;;;0.30;99.90;;;;;;5049881;28;20242;-76
2023/01/20 01:16:33;;;;;;;;;;;0.30;99.90;;;;;;5051434;28;19909;-76
2023/01/20 01:18:59;;;;;;;;;;;0.30;99.90;;;;;;5050483;28;19916;-76
2023/01/20 01:21:24;;;;;;;;;;;0.30;99.90;;;;;;5051316;28;20007;-76
2023/01/20 01:23:51;;;;;;;;;;;0.20;99.90;;;;;;5049164;28;19909;-76
2023/01/20 01:26:17;;;;;;;;;;;0.20;99.90;;;;;;5051361;28;19944;-76
2023/01/20 01:28:42;;;;;;;;;;;0.20;99.90;;;;;;5050780;28;19909;-76
2023/01/20 01:31:08;;;;;;;;;;;0.20;99.90;;;;;;5051364;28;20027;-76
2023/01/20 01:33:34;;;;;;;;;;;0.20;99.90;;;;;;5051032;28;20267;-76
2023/01/20 01:36:01;;;;;;;;;;;0.20;99.90;;;;;;5050662;28;20007;-76
2023/01/20 01:38:27;;;;;;;;;;;0.20;99.90;;;;;;5051321;28;19909;-75
2023/01/20 01:40:53;;;;;;;;;;;0.20;99.90;;;;;;5050638;28;20027;-75
2023/01/20 01:43:32;;;;;;;;;;;0.20;99.90;;;;;;5050660;28;19999;-75
2023/01/20 01:45:58;;;;;;;;;;;0.10;99.90;;;;;;5050650;28;19920;-75
2023/01/20 01:48:44;;;;;;;;;;;0.10;99.90;;;;;;5050802;28;19909;-75
2023/01/20 01:51:12;;;;;;;;;;;0.10;99.90;;;;;;5050971;28;19927;-76
2023/01/20 01:53:40;;;;;;;;;;;0.00;99.90;;;;;;5051007;28;19909;-75
2023/01/20 01:56:07;;;;;;;;;;;0.00;99.90;;;;;;5050822;28;20111;-75
2023/01/20 01:58:34;;;;;;;;;;;0.00;99.90;;;;;;5049558;28;20234;-75
2023/01/20 02:01:00;;;;;;;;;;;-0.10;99.90;;;;;;5050631;28;19912;-75
2023/01/20 02:03:33;;;;;;;;;;;-0.10;99.90;;;;;;5050674;28;20393;-75
2023/01/20 02:05:59;;;;;;;;;;;-0.10;99.90;;;;;;5050425;28;19932;-76
2023/01/20 02:08:25;;;;;;;;;;;-0.10;99.90;;;;;;5050901;28;19909;-75
2023/01/20 02:10:50;;;;;;;;;;;-0.20;99.90;;;;;;5050018;28;19935;-76
2023/01/20 02:13:16;;;;;;;;;;;-0.20;99.90;;;;;;5050732;28;20017;-76
2023/01/20 02:16:00;;;;;;;;;;;-0.20;99.90;;;;;;5050931;28;19917;-76
2023/01/20 02:18:42;;;;;;;;;;;-0.20;99.90;;;;;;5050893;28;19916;-76
2023/01/20 02:21:26;;;;;;;;;;;-0.20;99.90;;;;;;5054297;28;19987;-76
2023/01/20 02:23:57;;;;;;;;;;;-0.30;99.90;;;;;;5054149;28;20442;-76
2023/01/20 02:26:41;;;;;;;;;;;-0.30;99.90;;;;;;5053188;28;19932;-76
2023/01/20 02:29:18;;;;;;;;;;;-0.40;99.90;;;;;;5053839;28;19916;-76
2023/01/20 02:32:08;;;;;;;;;;;-0.30;99.90;;;;;;5053906;28;20334;-79
2023/01/20 02:34:40;;;;;;;;;;;-0.30;99.90;;;;;;5054510;28;20232;-75
2023/01/20 02:37:09;;;;;;;;;;;-0.30;99.90;;;;;;5053482;28;19905;-75
2023/01/20 02:39:54;;;;;;;;;;;-0.40;99.90;;;;;;5054135;28;19909;-75
2023/01/20 02:42:25;;;;;;;;;;;-0.40;99.90;;;;;;5054033;28;19960;-76
2023/01/20 02:44:54;;;;;;;;;;;-0.40;99.90;;;;;;5053561;28;19931;-76
2023/01/20 02:47:19;;;;;;;;;;;-0.40;99.90;;;;;;5054157;28;19920;-75
2023/01/20 02:49:49;;;;;;;;;;;-0.40;99.90;;;;;;5053625;28;19916;-77
2023/01/20 02:52:21;;;;;;;;;;;-0.40;99.90;;;;;;5054321;28;19909;-75
2023/01/20 02:54:48;;;;;;;;;;;-0.30;99.90;;;;;;5053638;28;19927;-78
2023/01/20 02:57:16;;;;;;;;;;;-0.30;99.90;;;;;;5054023;28;19909;-76
2023/01/20 02:59:44;;;;;;;;;;;-0.30;99.90;;;;;;5053969;28;19916;-76
2023/01/20 03:02:15;;;;;;;;;;;-0.30;99.90;;;;;;5053631;28;19916;-76
2023/01/20 03:04:43;;;;;;;;;;;-0.30;99.90;;;;;;5053629;28;19916;-76
2023/01/20 03:07:10;;;;;;;;;;;-0.30;99.90;;;;;;5053208;28;19927;-76
2023/01/20 03:09:43;;;;;;;;;;;-0.30;99.90;;;;;;5053725;28;20278;-76
2023/01/20 03:12:12;;;;;;;;;;;-0.40;99.90;;;;;;5052795;28;20680;-76
2023/01/20 03:14:38;;;;;;;;;;;-0.40;99.90;;;;;;5053317;28;19916;-76
2023/01/20 03:17:03;;;;;;;;;;;-0.40;99.90;;;;;;5053110;28;19909;-76
2023/01/20 03:19:29;;;;;;;;;;;-0.40;99.90;;;;;;5053618;28;19958;-76
2023/01/20 03:21:54;;;;;;;;;;;-0.40;99.90;;;;;;5069350;28;19995;-76
2023/01/20 03:24:21;;;;;;;;;;;-0.40;99.90;;;;;;5073713;28;20299;-76
2023/01/20 03:26:46;;;;;;;;;;;-0.40;99.90;;;;;;5073249;28;19908;-76
2023/01/20 03:29:14;;;;;;;;;;;-0.40;99.90;;;;;;5071548;28;19921;-76
2023/01/20 03:31:41;;;;;;;;;;;-0.40;99.90;;;;;;5072507;28;20250;-76
2023/01/20 03:34:11;;;;;;;;;;;-0.40;99.90;;;;;;5072879;28;19909;-76
2023/01/20 03:36:38;;;;;;;;;;;-0.40;99.90;;;;;;5073582;28;19908;-76
2023/01/20 03:39:04;;;;;;;;;;;-0.40;99.90;;;;;;5072862;28;19909;-76
2023/01/20 03:41:33;;;;;;;;;;;-0.40;99.90;;;;;;5073155;28;19912;-76
2023/01/20 03:44:16;;;;;;;;;;;-0.40;99.90;;;;;;5072449;28;20273;-77
2023/01/20 03:47:07;;;;;;;;;;;-0.40;99.90;;;;;;5072802;28;19931;-77
2023/01/20 03:49:42;;;;;;;;;;;-0.40;99.90;;;;;;5062142;28;19916;-76
2023/01/20 03:52:12;;;;;;;;;;;-0.40;99.90;;;;;;5072145;28;20296;-76
2023/01/20 03:55:04;;;;;;;;;;;-0.40;99.90;;;;;;5072791;28;20295;-76
2023/01/20 03:57:38;;;;;;;;;;;-0.40;99.90;;;;;;5068547;28;19928;-76
2023/01/20 04:00:05;;;;;;;;;;;-0.40;99.90;;;;;;5072229;28;19959;-76
2023/01/20 04:02:32;;;;;;;;;;;-0.40;99.90;;;;;;5072718;28;19920;-76
2023/01/20 04:04:59;;;;;;;;;;;-0.40;99.90;;;;;;5072001;28;20349;-76
2023/01/20 04:07:25;;;;;;;;;;;-0.40;99.90;;;;;;5072636;28;19908;-76
2023/01/20 04:09:53;;;;;;;;;;;-0.50;99.90;;;;;;5072192;28;19916;-79
2023/01/20 04:12:18;;;;;;;;;;;-0.50;99.90;;;;;;5072698;28;19915;-76
2023/01/20 04:14:44;;;;;;;;;;;-0.50;99.90;;;;;;5071034;28;19909;-77
2023/01/20 04:17:10;;;;;;;;;;;-0.60;99.90;;;;;;5071994;28;20636;-78
2023/01/20 04:19:35;;;;;;;;;;;-0.60;99.90;;;;;;5072388;28;19947;-77
2023/01/20 04:22:01;;;;;;;;;;;-0.60;99.90;;;;;;5071390;28;19958;-77
2023/01/20 04:24:26;;;;;;;;;;;-0.60;99.90;;;;;;5071994;28;20441;-77
2023/01/20 04:26:52;;;;;;;;;;;-0.50;99.90;;;;;;5071824;28;19999;-79
2023/01/20 04:29:17;;;;;;;;;;;-0.50;99.90;;;;;;5072080;28;19916;-77
2023/01/20 04:31:43;;;;;;;;;;;-0.50;99.90;;;;;;5072656;28;20419;-77
2023/01/20 04:34:11;;;;;;;;;;;-0.50;99.90;;;;;;5071444;28;20306;-77
2023/01/20 04:36:37;;;;;;;;;;;-0.50;99.90;;;;;;5072134;28;19909;-77
2023/01/20 04:39:02;;;;;;;;;;;-0.50;99.90;;;;;;5071225;28;20054;-76
2023/01/20 04:41:28;;;;;;;;;;;-0.50;99.90;;;;;;5071913;28;19908;-77
2023/01/20 04:43:53;;;;;;;;;;;-0.50;99.90;;;;;;5071414;28;19909;-79
2023/01/20 04:46:19;;;;;;;;;;;-0.50;99.90;;;;;;5071642;28;19916;-76
2023/01/20 04:48:45;;;;;;;;;;;-0.50;99.90;;;;;;5071930;28;19908;-76
2023/01/20 04:51:10;;;;;;;;;;;-0.60;99.90;;;;;;5071170;28;19920;-76
2023/01/20 04:53:36;;;;;;;;;;;-0.60;99.90;;;;;;5071792;28;20392;-77
2023/01/20 04:56:02;;;;;;;;;;;-0.60;99.90;;;;;;5071203;28;20015;-76
2023/01/20 04:58:27;;;;;;;;;;;-0.60;99.90;;;;;;5071777;28;19909;-76
2023/01/20 05:00:53;;;;;;;;;;;-0.60;99.90;;;;;;5071612;28;19909;-76
2023/01/20 05:03:18;;;;;;;;;;;-0.70;99.90;;;;;;5069692;28;19909;-76
2023/01/20 05:05:50;;;;;;;;;;;-0.80;99.90;;;;;;5071239;28;19909;-76
2023/01/20 05:08:16;;;;;;;;;;;-0.80;99.90;;;;;;5070681;28;20593;-76
2023/01/20 05:10:42;;;;;;;;;;;-0.80;99.90;;;;;;5071343;28;19962;-76
2023/01/20 05:13:07;;;;;;;;;;;-0.80;99.90;;;;;;5071000;28;19912;-76
2023/01/20 05:15:33;;;;;;;;;;;-0.80;99.90;;;;;;5071562;28;19912;-77
2023/01/20 05:17:58;;;;;;;;;;;-0.80;99.90;;;;;;5070673;28;19909;-77
2023/01/20 05:20:24;;;;;;;;;;;-0.80;99.90;;;;;;5071468;28;19916;-77
2023/01/20 05:22:49;;;;;;;;;;;-0.80;99.90;;;;;;5071298;28;20430;-77
2023/01/20 05:25:15;;;;;;;;;;;-0.70;99.90;;;;;;5070790;28;19927;-77
2023/01/20 05:27:41;;;;;;;;;;;-0.70;99.90;;;;;;5071466;28;20359;-77
2023/01/20 05:30:07;;;;;;;;;;;-0.80;99.90;;;;;;5069650;28;19938;-77
2023/01/20 05:32:32;;;;;;;;;;;-0.80;99.90;;;;;;5071310;28;19958;-76
2023/01/20 05:34:58;;;;;;;;;;;-0.80;99.90;;;;;;5070901;28;20021;-79
2023/01/20 05:37:23;;;;;;;;;;;-0.80;99.90;;;;;;5071533;28;19915;-77
2023/01/20 05:39:49;;;;;;;;;;;-0.80;99.90;;;;;;5071039;28;20296;-76
2023/01/20 05:42:14;;;;;;;;;;;-0.80;99.90;;;;;;5070728;28;19915;-76
2023/01/20 05:44:40;;;;;;;;;;;-0.80;99.90;;;;;;5071156;28;19974;-76
2023/01/20 05:47:06;;;;;;;;;;;-0.80;99.90;;;;;;5070559;28;20258;-76
2023/01/20 05:49:31;;;;;;;;;;;-0.80;99.90;;;;;;5071010;28;19952;-76
2023/01/20 05:51:57;;;;;;;;;;;-0.80;99.90;;;;;;5070755;28;19909;-78
2023/01/20 05:54:22;;;;;;;;;;;-0.80;99.90;;;;;;5071422;28;19999;-76
2023/01/20 05:56:48;;;;;;;;;;;-0.80;99.90;;;;;;5074993;28;19916;-76
2023/01/20 05:59:14;;;;;;;;;;;-0.80;99.90;;;;;;5074507;28;20397;-75
2023/01/20 06:01:39;;;;;;;;;;;-0.80;99.90;;;;;;5075104;28;20273;-76
2023/01/20 06:04:05;;;;;;;;;;;-0.80;99.90;;;;;;5074555;28;19931;-77
2023/01/20 06:06:31;;;;;;;;;;;-0.90;99.90;;;;;;5075217;28;19927;-77
2023/01/20 06:08:57;;;;;;;;;;;-0.90;99.90;;;;;;5074795;28;20295;-78
2023/01/20 06:11:22;;;;;;;;;;;-0.90;99.90;;;;;;5074414;28;19908;-77
2023/01/20 06:13:48;;;;;;;;;;;-0.80;99.90;;;;;;5075090;28;19915;-77
2023/01/20 06:16:15;;;;;;;;;;;-0.90;99.90;;;;;;5074180;28;19978;-78
2023/01/20 06:18:41;;;;;;;;;;;-0.90;99.90;;;;;;5074816;28;19908;-77
2023/01/20 06:21:06;;;;;;;;;;;-0.90;99.90;;;;;;5074320;28;19915;-77
2023/01/20 06:23:32;;;;;;;;;;;-0.90;99.90;;;;;;5074561;28;20464;-78
2023/01/20 06:26:05;;;;;;;;;;;-0.90;99.90;;;;;;5074771;28;20361;-77
2023/01/20 06:28:31;;;;;;;;;;;-0.90;99.90;;;;;;5074705;28;19985;-77
2023/01/20 06:30:58;;;;;;;;;;;-1.00;99.90;;;;;;5074530;28;19932;-76
2023/01/20 06:33:24;;;;;;;;;;;-0.90;99.90;;;;;;5074826;28;19908;-77
2023/01/20 06:35:52;;;;;;;;;;;-1.00;99.90;;;;;;5074190;28;20196;-77
2023/01/20 06:38:17;;;;;;;;;;;-1.00;99.90;;;;;;5073633;28;19909;-77
2023/01/20 06:40:43;;;;;;;;;;;-0.90;99.90;;;;;;5074754;28;20372;-77
2023/01/20 06:43:08;;;;;;;;;;;-1.00;99.90;;;;;;5072292;28;19999;-76
2023/01/20 06:45:34;;;;;;;;;;;-1.00;99.90;;;;;;5074205;28;19916;-77
2023/01/20 06:47:59;;;;;;;;;;;-1.00;99.90;;;;;;5074004;28;20373;-76
2023/01/20 06:50:25;;;;;;;;;;;-1.00;99.90;;;;;;5073607;28;20320;-77
2023/01/20 06:52:52;;;;;;;;;;;-1.00;99.90;;;;;;5074004;28;19909;-77
2023/01/20 06:55:17;;;;;;;;;;;-1.10;99.90;;;;;;5073402;28;19947;-77
2023/01/20 06:57:43;;;;;;;;;;;-1.10;99.90;;;;;;5073948;28;19908;-77
2023/01/20 07:00:09;;;;;;;;;;;-1.10;99.90;;;;;;5072330;28;19914;-77
2023/01/20 07:02:34;;;;;;;;;;;-1.10;99.90;;;;;;5073833;28;19908;-77
2023/01/20 07:05:00;;;;;;;;;;;-1.10;99.90;;;;;;5073668;28;20338;-76
2023/01/20 07:07:25;;;;;;;;;;;-1.20;99.90;;;;;;5073184;28;19956;-77
2023/01/20 07:09:54;;;;;;;;;;;-1.10;99.90;;;;;;5074048;28;19917;-77
2023/01/20 07:12:19;;;;;;;;;;;-1.10;99.90;;;;;;5073415;28;19958;-77
2023/01/20 07:14:45;;;;;;;;;;;-1.10;99.90;;;;;;5074027;28;19909;-76
2023/01/20 07:17:11;;;;;;;;;;;-1.10;99.90;;;;;;5073104;28;19962;-77
2023/01/20 07:19:36;;;;;;;;;;;-1.10;99.90;;;;;;5074146;28;19969;-76
2023/01/20 07:22:02;;;;;;;;;;;-1.20;99.90;;;;;;5074082;28;19916;-77
2023/01/20 07:24:28;;;;;;;;;;;-1.20;99.90;;;;;;5073675;28;19914;-76
2023/01/20 07:26:53;;;;;;;;;;;-1.10;99.90;;;;;;5073718;28;19915;-76
2023/01/20 07:29:19;;;;;;;;;;;-1.10;99.90;;;;;;5072517;28;20316;-76
2023/01/20 07:31:45;;;;;;;;;;;-1.20;99.90;;;;;;5073316;28;19962;-76
2023/01/20 07:34:10;;;;;;;;;;;-1.20;99.90;;;;;;5072474;28;19940;-77
2023/01/20 07:36:36;;;;;;;;;;;-1.20;99.90;;;;;;5073131;28;19912;-77
2023/01/20 07:39:02;;;;;;;;;;;-1.20;99.90;;;;;;5072833;28;19908;-77
2023/01/20 07:41:27;;;;;;;;;;;-1.20;99.90;;;;;;5072747;28;19920;-77
2023/01/20 07:43:53;;;;;;;;;;;-1.20;99.90;;;;;;5072749;28;20007;-78
2023/01/20 07:46:19;;;;;;;;;;;-1.30;99.90;;;;;;5072370;28;20421;-78
2023/01/20 07:48:45;;;;;;;;;;;-1.30;99.90;;;;;;5072449;28;20200;-77
2023/01/20 07:51:11;;;;;;;;;;;-1.20;99.90;;;;;;5071684;28;19935;-78
2023/01/20 07:53:38;;;;;;;;;;;-1.20;99.90;;;;;;5072318;28;19908;-77
2023/01/20 07:56:05;;;;;;;;;;;-1.30;99.90;;;;;;5070625;28;19920;-77
2023/01/20 07:58:31;;;;;;;;;;;-1.30;99.90;;;;;;5072253;28;19919;-77
2023/01/20 08:00:57;;;;;;;;;;;-1.30;99.90;;;;;;5072031;28;20334;-77
2023/01/20 08:03:22;;;;;;;;;;;-1.30;99.90;;;;;;5072173;28;20224;-76
2023/01/20 08:05:48;;;;;;;;;;;-1.30;99.90;;;;;;5072352;28;19928;-77
2023/01/20 08:08:13;;;;;;;;;;;-1.40;99.90;;;;;;5071819;28;20049;-76
2023/01/20 08:10:39;;;;;;;;;;;-1.30;99.90;;;;;;5071857;28;19921;-76
2023/01/20 08:13:05;;;;;;;;;;;-1.30;99.90;;;;;;5072202;28;19947;-76
2023/01/20 08:15:30;;;;;;;;;;;-1.40;99.90;;;;;;5071712;28;19909;-78
2023/01/20 08:17:57;;;;;;;;;;;-1.40;99.90;;;;;;5071311;28;19987;-77
2023/01/20 08:20:22;;;;;;;;;;;-1.40;99.90;;;;;;5071698;28;19961;-77
2023/01/20 08:22:48;;;;;;;;;;;-1.40;99.90;;;;;;5072776;28;19908;-77
2023/01/20 08:25:14;;;;;;;;;;;-1.40;99.90;;;;;;5072097;28;19952;-77
2023/01/20 08:27:40;;;;;;;;;;;-1.40;99.90;;;;;;5072413;28;19912;-76
2023/01/20 08:30:05;;;;;;;;;;;-1.40;99.90;;;;;;5070668;28;19920;-76
2023/01/20 08:32:31;;;;;;;;;;;-1.40;99.90;;;;;;5070017;28;19912;-75
2023/01/20 08:34:56;;;;;;;;;;;-1.40;99.90;;;;;;5070633;28;19916;-76
2023/01/20 08:37:22;;;;;;;;;;;-1.50;99.90;;;;;;5069758;28;20302;-77
2023/01/20 08:39:48;;;;;;;;;;;-1.40;99.90;;;;;;5071664;28;19909;-76
2023/01/20 08:42:13;;;;;;;;;;;-1.50;99.90;;;;;;5071345;28;19908;-77
2023/01/20 08:44:39;;;;;;;;;;;-1.50;99.90;;;;;;5072185;28;19935;-76
2023/01/20 08:47:04;;;;;;;;;;;-1.40;99.90;;;;;;5070398;28;19920;-77
2023/01/20 08:49:30;;;;;;;;;;;-1.40;99.90;;;;;;5070954;28;20066;-77
2023/01/20 08:51:56;;;;;;;;;;;-1.40;99.90;;;;;;5071665;28;19915;-76
2023/01/20 08:54:22;;;;;;;;;;;-1.40;99.90;;;;;;5070446;28;19909;-76
2023/01/20 08:56:51;;;;;;;;;;;-1.40;99.90;;;;;;5071831;28;20380;-76
2023/01/20 08:59:17;;;;;;;;;;;-1.40;99.90;;;;;;5071024;28;19908;-77
2023/01/20 09:01:42;;;;;;;;;;;-1.40;99.90;;;;;;5064561;28;20336;-76
2023/01/20 09:04:08;;;;;;;;;;;-1.40;99.90;;;;;;5062182;28;19908;-77
2023/01/20 09:06:42;;;;;;;;;;;-1.40;99.90;;;;;;5060079;28;19913;-76
2023/01/20 09:09:08;;;;;;;;;;;-1.30;99.90;;;;;;5070684;28;19917;-77
2023/01/20 09:11:33;;;;;;;;;;;-1.30;99.90;;;;;;5070579;28;19913;-76
2023/01/20 09:13:59;;;;;;;;;;;-1.20;99.90;;;;;;5071314;28;19943;-76
2023/01/20 09:16:25;;;;;;;;;;;-1.20;99.90;;;;;;5070341;28;20040;-76
2023/01/20 09:18:50;;;;;;;;;;;-1.00;99.90;;;;;;5041908;28;19986;-77
2023/01/20 09:21:16;;;;;;;;;;;-0.90;99.90;;;;;;5060204;28;19915;-77
2023/01/20 09:23:42;;;;;;;;;;;-0.90;99.90;;;;;;5061420;28;19915;-77
2023/01/20 09:26:08;;;;;;;;;;;-0.80;99.90;;;;;;5059627;28;19995;-76
2023/01/20 09:28:33;;;;;;;;;;;-0.80;99.90;;;;;;5058717;28;20087;-76
2023/01/20 09:31:04;;;;;;;;;;;-0.80;99.90;;;;;;5056010;28;19946;-75
2023/01/20 09:33:31;;;;;;;;;;;-0.70;99.90;;;;;;5065860;28;19912;-75
2023/01/20 09:35:57;;;;;;;;;;;-0.70;99.90;;;;;;5070810;28;20011;-75
2023/01/20 09:44:14;;;;;;;;;;;-0.50;99.90;;;;;;5070566;28;19954;-76
2023/01/20 09:46:42;;;;;;;;;;;-0.50;99.90;;;;;;5064774;28;19916;-76
2023/01/20 09:55:18;;;;;;;;;;;-0.40;99.90;;;;;;5056153;28;20406;-76
2023/01/20 09:57:47;;;;;;;;;;;-0.40;99.90;;;;;;5050788;28;19917;-77
2023/01/20 10:00:21;;;;;;;;;;;-0.40;99.90;;;;;;5050909;28;19909;-76
2023/01/20 10:02:50;;;;;;;;;;;-0.30;99.90;;;;;;5050908;28;19909;-77
2023/01/20 10:05:18;;;;;;;;;;;-0.30;99.90;;;;;;5055864;28;19920;-78
2023/01/20 10:08:03;;;;;;;;;;;-0.20;99.90;;;;;;5058660;28;19955;-77
2023/01/20 10:10:30;;;;;;;;;;;-0.20;99.90;;;;;;5066155;28;20008;-76
2023/01/20 10:13:18;;;;;;;;;;;-0.10;99.90;;;;;;5070728;28;19978;-76
2023/01/20 10:15:47;;;;;;;;;;;-0.10;99.90;;;;;;5064630;28;20016;-76
2023/01/20 10:18:15;;;;;;;;;;;-0.10;99.90;;;;;;5059305;28;19909;-76
2023/01/20 10:20:47;;;;;;;;;;;-0.10;99.90;;;;;;5054299;28;19954;-76
2023/01/20 10:23:18;;;;;;;;;;;-0.10;99.90;;;;;;5050856;28;19909;-77
2023/01/20 10:25:59;;;;;;;;;;;0.00;99.90;;;;;;5058427;28;19996;-76
2023/01/20 10:28:29;;;;;;;;;;;0.10;99.90;;;;;;5060992;28;20377;-76
2023/01/20 10:30:57;;;;;;;;;;;0.10;99.90;;;;;;5068807;28;19921;-76
2023/01/20 10:33:26;;;;;;;;;;;0.10;99.90;;;;;;5070031;28;19908;-78
2023/01/20 10:35:53;;;;;;;;;;;0.10;99.90;;;;;;5070403;28;20336;-76
2023/01/20 10:38:18;;;;;;;;;;;0.20;99.90;;;;;;5068536;28;19909;-78
2023/01/20 10:40:48;;;;;;;;;;;0.20;99.90;;;;;;5071841;28;20430;-76
2023/01/20 10:43:14;;;;;;;;;;;0.20;99.90;;;;;;5074043;28;19919;-76
2023/01/20 10:45:59;;;;;;;;;;;0.20;99.90;;;;;;5073687;28;19923;-76
2023/01/20 10:48:59;;;;;;;;;;;0.30;99.90;;;;;;5073867;28;19909;-76
2023/01/20 10:51:34;;;;;;;;;;;0.30;99.90;;;;;;5010964;28;19929;-77
2023/01/20 10:54:26;;;;;;;;;;;0.40;99.90;;;;;;5064884;28;19919;-77
2023/01/20 10:56:54;;;;;;;;;;;0.40;99.90;;;;;;5049291;28;19981;-77
2023/01/20 10:59:28;;;;;;;;;;;0.40;99.90;;;;;;5073568;28;19935;-79
2023/01/20 11:01:55;;;;;;;;;;;0.50;99.90;;;;;;5073733;28;20033;-77
2023/01/20 11:04:21;;;;;;;;;;;0.60;99.90;;;;;;5073299;28;19908;-76
2023/01/20 11:06:51;;;;;;;;;;;0.70;99.90;;;;;;5073629;28;19920;-77
2023/01/20 11:09:26;;;;;;;;;;;0.70;99.90;;;;;;5073150;28;19947;-77
2023/01/20 11:11:51;;;;;;;;;;;0.80;99.90;;;;;;5073650;28;19908;-75
2023/01/20 11:14:18;;;;;;;;;;;0.80;99.90;;;;;;5071852;28;20011;-75
2023/01/20 11:16:45;;;;;;;;;;;0.90;99.90;;;;;;5072721;28;19941;-76
2023/01/20 11:19:11;;;;;;;;;;;1.00;99.90;;;;;;5073105;28;19916;-76
2023/01/20 11:21:37;;;;;;;;;;;1.00;99.90;;;;;;5072546;28;19988;-76
2023/01/20 11:24:03;;;;;;;;;;;1.20;99.90;;;;;;5073257;28;19908;-76
2023/01/20 11:26:30;;;;;;;;;;;1.30;99.90;;;;;;5072509;28;19913;-76
2023/01/20 11:29:00;;;;;;;;;;;1.40;99.90;;;;;;5073070;28;19916;-77
2023/01/20 11:31:44;;;;;;;;;;;1.50;99.90;;;;;;5072524;28;20332;-77
2023/01/20 11:34:20;;;;;;;;;;;1.60;99.90;;;;;;5073074;28;19919;-77
2023/01/20 11:36:46;;;;;;;;;;;1.60;99.90;;;;;;5072632;28;19990;-77
2023/01/20 11:39:25;;;;;;;;;;;1.60;99.90;;;;;;5073159;28;19951;-77
2023/01/20 11:42:10;;;;;;;;;;;1.70;99.90;;;;;;5073204;28;19954;-77
2023/01/20 11:44:46;;;;;;;;;;;1.80;99.90;;;;;;5072593;28;19964;-77
2023/01/20 11:47:15;;;;;;;;;;;1.90;99.90;;;;;;5073026;28;19913;-76
2023/01/20 11:49:41;;;;;;;;;;;2.00;99.90;;;;;;5072203;28;20007;-77
2023/01/20 11:52:18;;;;;;;;;;;2.10;99.90;;;;;;5070563;28;20387;-76
2023/01/20 11:54:44;;;;;;;;;;;2.10;99.90;;;;;;5072205;28;20305;-77
2023/01/20 11:57:13;;;;;;;;;;;2.20;99.90;;;;;;5072979;28;20444;-76
2023/01/20 11:59:45;;;;;;;;;;;2.20;99.90;;;;;;5072368;28;19908;-77
2023/01/20 12:02:11;;;;;;;;;;;2.20;99.90;;;;;;5072950;28;19974;-77
2023/01/20 12:04:55;;;;;;;;;;;2.40;99.90;;;;;;5072293;28;19916;-77
2023/01/20 12:07:33;;;;;;;;;;;2.50;99.90;;;;;;5072533;28;19909;-77
2023/01/20 12:10:04;;;;;;;;;;;2.60;99.90;;;;;;5072094;28;19938;-77
2023/01/20 12:13:02;;;;;;;;;;;2.80;99.90;;;;;;5071625;28;20385;-77
2023/01/20 12:15:30;;;;;;;;;;;2.90;99.90;;;;;;5037403;28;20114;-77
2023/01/20 12:18:06;;;;;;;;;;;2.90;99.90;;;;;;5072417;28;20281;-76
2023/01/20 12:20:55;;;;;;;;;;;2.90;99.90;;;;;;5071993;28;20100;-77
2023/01/20 12:23:38;;;;;;;;;;;3.00;99.90;;;;;;5070626;28;20377;-77
2023/01/20 12:26:04;;;;;;;;;;;3.10;99.90;;;;;;5072098;28;19912;-77
2023/01/20 12:28:35;;;;;;;;;;;3.10;99.90;;;;;;5071485;28;19919;-76
2023/01/20 12:31:02;;;;;;;;;;;3.10;99.90;;;;;;5071800;28;19916;-76
2023/01/20 12:33:32;;;;;;;;;;;3.30;99.90;;;;;;5071255;28;19916;-77
2023/01/20 12:36:04;;;;;;;;;;;3.30;99.90;;;;;;5072184;28;19909;-77
2023/01/20 12:38:34;;;;;;;;;;;3.40;99.90;;;;;;5071220;28;20265;-78
2023/01/20 12:41:03;;;;;;;;;;;3.40;99.90;;;;;;5071903;28;19912;-77
2023/01/20 12:43:31;;;;;;;;;;;3.50;99.90;;;;;;5071555;28;19951;-77
2023/01/20 12:45:58;;;;;;;;;;;3.50;99.90;;;;;;5072069;28;19995;-76
2023/01/20 12:48:42;;;;;;;;;;;3.60;99.90;;;;;;5071671;28;20011;-77
2023/01/20 12:51:14;;;;;;;;;;;3.60;99.90;;;;;;5071648;28;20381;-77
2023/01/20 12:53:39;;;;;;;;;;;3.60;99.90;;;;;;5070806;28;19933;-77
2023/01/20 12:56:05;;;;;;;;;;;3.70;99.90;;;;;;5069593;28;20381;-78
2023/01/20 12:58:41;;;;;;;;;;;3.70;99.90;;;;;;5071327;28;19999;-77
2023/01/20 13:01:25;;;;;;;;;;;3.70;99.90;;;;;;5072560;28;19915;-77
2023/01/20 13:03:54;;;;;;;;;;;3.70;99.90;;;;;;5071337;28;19951;-78
2023/01/20 13:06:46;;;;;;;;;;;3.70;99.90;;;;;;5072362;28;19916;-78
2023/01/20 13:09:21;;;;;;;;;;;3.80;99.90;;;;;;5068436;28;20277;-78
2023/01/20 13:11:56;;;;;;;;;;;3.80;99.90;;;;;;5071417;28;19912;-76
2023/01/20 13:14:39;;;;;;;;;;;3.90;99.90;;;;;;5072034;28;20028;-77
2023/01/20 13:17:23;;;;;;;;;;;3.90;99.90;;;;;;5071948;28;20277;-77
2023/01/20 13:19:50;;;;;;;;;;;4.00;99.90;;;;;;5071490;28;19908;-77
2023/01/20 13:22:19;;;;;;;;;;;4.00;99.90;;;;;;5072056;28;19908;-77
2023/01/20 13:24:47;;;;;;;;;;;4.00;99.90;;;;;;5071543;28;19932;-77
2023/01/20 13:27:13;;;;;;;;;;;4.00;99.90;;;;;;5072068;28;19916;-78
2023/01/20 13:29:40;;;;;;;;;;;4.00;99.90;;;;;;5070899;28;19917;-77
2023/01/20 13:32:44;;;;;;;;;;;4.10;99.90;;;;;;5071322;28;19916;-77
2023/01/20 13:35:16;;;;;;;;;;;4.10;99.90;;;;;;5009661;28;19925;-77
2023/01/20 13:37:47;;;;;;;;;;;4.10;99.90;;;;;;5009217;28;20004;-78
2023/01/20 13:40:31;;;;;;;;;;;4.10;99.90;;;;;;5010149;28;19916;-77
2023/01/20 13:42:57;;;;;;;;;;;4.10;99.90;;;;;;5009780;28;19910;-77
2023/01/20 13:45:23;;;;;;;;;;;4.20;99.90;;;;;;5009753;28;19916;-77
2023/01/20 13:47:57;;;;;;;;;;;4.30;99.90;;;;;;5009152;28;19910;-77
2023/01/20 13:50:27;;;;;;;;;;;4.30;99.90;;;;;;5009483;28;20329;-77
2023/01/20 13:52:56;;;;;;;;;;;4.30;99.90;;;;;;5009140;28;19917;-77
2023/01/20 13:55:27;;;;;;;;;;;4.30;99.90;;;;;;5009332;28;19948;-78
2023/01/20 13:57:52;;;;;;;;;;;4.30;99.90;;;;;;5008927;28;19913;-78
2023/01/20 14:00:18;;;;;;;;;;;4.30;99.90;;;;;;5009771;28;20357;-78
2023/01/20 14:02:44;;;;;;;;;;;4.30;99.90;;;;;;5009298;28;19909;-78
2023/01/20 14:05:24;;;;;;;;;;;4.30;99.90;;;;;;5021900;28;19908;-78
2023/01/20 14:07:50;;;;;;;;;;;4.30;99.90;;;;;;5066068;28;20011;-78
2023/01/20 14:10:15;;;;;;;;;;;4.30;99.90;;;;;;5062059;28;20008;-76
2023/01/20 14:12:41;;;;;;;;;;;4.30;99.90;;;;;;5062297;28;19909;-78
2023/01/20 14:15:21;;;;;;;;;;;4.30;99.90;;;;;;5062023;28;20277;-77
2023/01/20 14:17:57;;;;;;;;;;;4.30;99.90;;;;;;5055019;28;19917;-78
2023/01/20 14:20:24;;;;;;;;;;;4.40;99.90;;;;;;5055457;28;20305;-78
2023/01/20 14:22:49;;;;;;;;;;;4.40;99.90;;;;;;5054645;28;19946;-78
2023/01/20 14:25:20;;;;;;;;;;;4.50;99.90;;;;;;5054329;28;20303;-78
2023/01/20 14:27:45;;;;;;;;;;;4.50;99.90;;;;;;5062616;28;20021;-78
2023/01/20 14:30:13;;;;;;;;;;;4.50;99.90;;;;;;5064545;28;19921;-78
2023/01/20 14:32:39;;;;;;;;;;;4.50;99.90;;;;;;5062769;28;19909;-78
2023/01/20 14:35:12;;;;;;;;;;;4.50;99.90;;;;;;5063214;28;20299;-78
2023/01/20 14:37:39;;;;;;;;;;;4.50;99.90;;;;;;5068188;28;20025;-79
2023/01/20 14:40:10;;;;;;;;;;;4.40;99.90;;;;;;5066684;28;19924;-79
2023/01/20 14:42:37;;;;;;;;;;;4.40;99.90;;;;;;5073893;28;19916;-79
2023/01/20 14:45:19;;;;;;;;;;;4.40;99.90;;;;;;5074147;28;19915;-78